sensor_id;sensor_type;location;lat;lon;timestamp;temperature;humidity
33564;DHT22;19894;48.452;11.494;2023-02-26T00:00:06;18.50;36.60
33564;DHT22;19894;48.452;11.494;2023-02-26T00:02:38;18.50;36.60
33564;DHT22;19894;48.452;11.494;2023-02-26T00:05:05;18.50;36.60
33564;DHT22;19894;48.452;11.494;2023-02-26T00:07:30;18.50;36.50
33564;DHT22;19894;48.452;11.494;2023-02-26T00:09:56;18.50;36.60
33564;DHT22;19894;48.452;11.494;2023-02-26T00:12:22;18.50;36.50
33564;DHT22;19894;48.452;11.494;2023-02-26T00:14:48;18.50;36.50
33564;DHT22;19894;48.452;11.494;2023-02-26T00:17:31;18.50;36.60
33564;DHT22;19894;48.452;11.494;2023-02-26T00:19:58;18.50;36.60
33564;DHT22;19894;48.452;11.494;2023-02-26T00:22:24;18.50;36.60
33564;DHT22;19894;48.452;11.494;2023-02-26T00:24:49;18.50;36.50
33564;DHT22;19894;48.452;11.494;2023-02-26T00:27:15;18.50;36.50
33564;DHT22;19894;48.452;11.494;2023-02-26T00:29:41;18.60;36.50
33564;DHT22;19894;48.452;11.494;2023-02-26T00:32:07;18.50;36.50
33564;DHT22;19894;48.452;11.494;2023-02-26T00:34:33;18.50;36.50
33564;DHT22;19894;48.452;11.494;2023-02-26T00:37:09;18.50;36.50
33564;DHT22;19894;48.452;11.494;2023-02-26T00:39:55;18.50;36.50
33564;DHT22;19894;48.452;11.494;2023-02-26T00:42:22;18.50;36.50
33564;DHT22;19894;48.452;11.494;2023-02-26T00:44:48;18.50;36.50
33564;DHT22;19894;48.452;11.494;2023-02-26T00:49:55;18.50;36.50
33564;DHT22;19894;48.452;11.494;2023-02-26T00:52:50;18.50;36.50
33564;DHT22;19894;48.452;11.494;2023-02-26T00:55:17;18.50;36.40
33564;DHT22;19894;48.452;11.494;2023-02-26T00:57:44;18.50;36.40
33564;DHT22;19894;48.452;11.494;2023-02-26T01:00:10;18.50;36.40
33564;DHT22;19894;48.452;11.494;2023-02-26T01:02:37;18.50;36.40
33564;DHT22;19894;48.452;11.494;2023-02-26T01:05:03;18.50;36.40
33564;DHT22;19894;48.452;11.494;2023-02-26T01:07:34;18.50;36.30
33564;DHT22;19894;48.452;11.494;2023-02-26T01:10:03;18.50;36.30
33564;DHT22;19894;48.452;11.494;2023-02-26T01:12:29;18.50;36.30
33564;DHT22;19894;48.452;11.494;2023-02-26T01:14:55;18.50;36.30
33564;DHT22;19894;48.452;11.494;2023-02-26T01:17:27;18.50;36.40
33564;DHT22;19894;48.452;11.494;2023-02-26T01:20:08;18.50;36.40
33564;DHT22;19894;48.452;11.494;2023-02-26T01:22:54;18.50;36.30
33564;DHT22;19894;48.452;11.494;2023-02-26T01:25:30;18.50;36.30
33564;DHT22;19894;48.452;11.494;2023-02-26T01:27:59;18.50;36.30
33564;DHT22;19894;48.452;11.494;2023-02-26T01:30:25;18.50;36.30
33564;DHT22;19894;48.452;11.494;2023-02-26T01:35:55;18.50;36.30
33564;DHT22;19894;48.452;11.494;2023-02-26T01:38:43;18.50;36.30
33564;DHT22;19894;48.452;11.494;2023-02-26T01:43:56;18.50;36.30
33564;DHT22;19894;48.452;11.494;2023-02-26T01:46:34;18.50;36.30
33564;DHT22;19894;48.452;11.494;2023-02-26T01:49:02;18.50;36.30
33564;DHT22;19894;48.452;11.494;2023-02-26T01:54:11;18.50;36.20
33564;DHT22;19894;48.452;11.494;2023-02-26T01:56:38;18.50;36.20
33564;DHT22;19894;48.452;11.494;2023-02-26T01:59:04;18.50;36.20
33564;DHT22;19894;48.452;11.494;2023-02-26T02:01:38;18.50;36.10
33564;DHT22;19894;48.452;11.494;2023-02-26T02:04:06;18.50;36.10
33564;DHT22;19894;48.452;11.494;2023-02-26T02:06:32;18.50;36.10
33564;DHT22;19894;48.452;11.494;2023-02-26T02:08:58;18.50;36.10
33564;DHT22;19894;48.452;11.494;2023-02-26T02:11:23;18.50;36.00
33564;DHT22;19894;48.452;11.494;2023-02-26T02:22:20;18.50;36.10
33564;DHT22;19894;48.452;11.494;2023-02-26T02:28:07;18.50;36.00
33564;DHT22;19894;48.452;11.494;2023-02-26T02:31:00;18.50;36.00
33564;DHT22;19894;48.452;11.494;2023-02-26T02:33:35;18.50;36.00
33564;DHT22;19894;48.452;11.494;2023-02-26T02:36:06;18.50;36.00
33564;DHT22;19894;48.452;11.494;2023-02-26T02:38:42;18.50;36.10
33564;DHT22;19894;48.452;11.494;2023-02-26T02:41:23;18.50;36.00
33564;DHT22;19894;48.452;11.494;2023-02-26T02:43:51;18.50;36.00
33564;DHT22;19894;48.452;11.494;2023-02-26T02:46:22;18.50;36.00
33564;DHT22;19894;48.452;11.494;2023-02-26T02:49:04;18.50;36.00
33564;DHT22;19894;48.452;11.494;2023-02-26T02:51:41;18.50;36.00
33564;DHT22;19894;48.452;11.494;2023-02-26T02:54:19;18.50;35.90
33564;DHT22;19894;48.452;11.494;2023-02-26T02:56:57;18.50;35.90
33564;DHT22;19894;48.452;11.494;2023-02-26T02:59:38;18.50;35.90
33564;DHT22;19894;48.452;11.494;2023-02-26T03:04:56;18.50;35.80
33564;DHT22;19894;48.452;11.494;2023-02-26T03:07:22;18.50;35.80
33564;DHT22;19894;48.452;11.494;2023-02-26T03:09:48;18.50;35.80
33564;DHT22;19894;48.452;11.494;2023-02-26T03:12:14;18.50;35.70
33564;DHT22;19894;48.452;11.494;2023-02-26T03:14:40;18.50;35.70
33564;DHT22;19894;48.452;11.494;2023-02-26T03:20:32;18.50;35.70
33564;DHT22;19894;48.452;11.494;2023-02-26T03:23:08;18.50;35.80
33564;DHT22;19894;48.452;11.494;2023-02-26T03:25:46;18.50;35.80
33564;DHT22;19894;48.452;11.494;2023-02-26T03:31:16;18.50;35.70
33564;DHT22;19894;48.452;11.494;2023-02-26T03:34:03;18.50;35.70
33564;DHT22;19894;48.452;11.494;2023-02-26T03:39:26;18.50;35.70
33564;DHT22;19894;48.452;11.494;2023-02-26T03:42:03;18.50;35.80
33564;DHT22;19894;48.452;11.494;2023-02-26T03:47:31;18.50;35.70
33564;DHT22;19894;48.452;11.494;2023-02-26T03:50:04;18.50;35.70
33564;DHT22;19894;48.452;11.494;2023-02-26T03:52:34;18.50;35.60
33564;DHT22;19894;48.452;11.494;2023-02-26T03:55:06;18.50;35.60
33564;DHT22;19894;48.452;11.494;2023-02-26T03:57:33;18.50;35.60
33564;DHT22;19894;48.452;11.494;2023-02-26T03:59:59;18.50;35.60
33564;DHT22;19894;48.452;11.494;2023-02-26T04:02:52;18.50;35.60
33564;DHT22;19894;48.452;11.494;2023-02-26T04:05:22;18.50;35.50
33564;DHT22;19894;48.452;11.494;2023-02-26T04:07:50;18.50;35.50
33564;DHT22;19894;48.452;11.494;2023-02-26T04:10:19;18.50;35.50
33564;DHT22;19894;48.452;11.494;2023-02-26T04:12:47;18.50;35.40
33564;DHT22;19894;48.452;11.494;2023-02-26T04:15:13;18.50;35.40
33564;DHT22;19894;48.452;11.494;2023-02-26T04:17:38;18.50;35.40
33564;DHT22;19894;48.452;11.494;2023-02-26T04:20:05;18.50;35.40
33564;DHT22;19894;48.452;11.494;2023-02-26T04:22:37;18.50;35.40
33564;DHT22;19894;48.452;11.494;2023-02-26T04:25:03;18.50;35.50
33564;DHT22;19894;48.452;11.494;2023-02-26T04:27:28;18.50;35.50
33564;DHT22;19894;48.452;11.494;2023-02-26T04:29:54;18.50;35.50
33564;DHT22;19894;48.452;11.494;2023-02-26T04:32:19;18.50;35.40
33564;DHT22;19894;48.452;11.494;2023-02-26T04:34:45;18.50;35.40
33564;DHT22;19894;48.452;11.494;2023-02-26T04:37:10;18.50;35.40
33564;DHT22;19894;48.452;11.494;2023-02-26T04:39:36;18.50;35.40
33564;DHT22;19894;48.452;11.494;2023-02-26T04:42:01;18.50;35.40
33564;DHT22;19894;48.452;11.494;2023-02-26T04:44:29;18.50;35.40
33564;DHT22;19894;48.452;11.494;2023-02-26T04:46:54;18.50;35.40
33564;DHT22;19894;48.452;11.494;2023-02-26T04:49:20;18.50;35.50
33564;DHT22;19894;48.452;11.494;2023-02-26T04:51:45;18.50;35.40
33564;DHT22;19894;48.452;11.494;2023-02-26T04:54:11;18.50;35.40
33564;DHT22;19894;48.452;11.494;2023-02-26T04:56:36;18.50;35.40
33564;DHT22;19894;48.452;11.494;2023-02-26T04:59:02;18.50;35.30
33564;DHT22;19894;48.452;11.494;2023-02-26T05:01:28;18.50;35.30
33564;DHT22;19894;48.452;11.494;2023-02-26T05:03:53;18.50;35.30
33564;DHT22;19894;48.452;11.494;2023-02-26T05:06:19;18.50;35.20
33564;DHT22;19894;48.452;11.494;2023-02-26T05:08:45;18.50;35.20
33564;DHT22;19894;48.452;11.494;2023-02-26T05:11:11;18.50;35.20
33564;DHT22;19894;48.452;11.494;2023-02-26T05:13:37;18.50;35.10
33564;DHT22;19894;48.452;11.494;2023-02-26T05:16:04;18.50;35.10
33564;DHT22;19894;48.452;11.494;2023-02-26T05:18:29;18.50;35.10
33564;DHT22;19894;48.452;11.494;2023-02-26T05:20:55;18.50;35.10
33564;DHT22;19894;48.452;11.494;2023-02-26T05:23:21;18.50;35.10
33564;DHT22;19894;48.452;11.494;2023-02-26T05:25:47;18.50;35.10
33564;DHT22;19894;48.452;11.494;2023-02-26T05:28:13;18.50;35.10
33564;DHT22;19894;48.452;11.494;2023-02-26T05:30:39;18.50;35.20
33564;DHT22;19894;48.452;11.494;2023-02-26T05:33:05;18.50;35.20
33564;DHT22;19894;48.452;11.494;2023-02-26T05:35:30;18.50;35.10
33564;DHT22;19894;48.452;11.494;2023-02-26T05:37:56;18.50;35.10
33564;DHT22;19894;48.452;11.494;2023-02-26T05:40:23;18.50;35.10
33564;DHT22;19894;48.452;11.494;2023-02-26T05:42:49;18.50;35.10
33564;DHT22;19894;48.452;11.494;2023-02-26T05:45:16;18.50;35.00
33564;DHT22;19894;48.452;11.494;2023-02-26T05:47:42;18.50;35.60
33564;DHT22;19894;48.452;11.494;2023-02-26T05:50:08;18.50;35.10
33564;DHT22;19894;48.452;11.494;2023-02-26T05:52:34;18.50;35.10
33564;DHT22;19894;48.452;11.494;2023-02-26T05:54:59;18.50;35.00
33564;DHT22;19894;48.452;11.494;2023-02-26T05:57:25;18.50;35.00
33564;DHT22;19894;48.452;11.494;2023-02-26T05:59:51;18.50;35.00
33564;DHT22;19894;48.452;11.494;2023-02-26T06:02:16;18.50;35.00
33564;DHT22;19894;48.452;11.494;2023-02-26T06:04:42;18.50;35.00
33564;DHT22;19894;48.452;11.494;2023-02-26T06:07:08;18.50;35.00
33564;DHT22;19894;48.452;11.494;2023-02-26T06:09:33;18.50;34.90
33564;DHT22;19894;48.452;11.494;2023-02-26T06:11:59;18.50;34.90
33564;DHT22;19894;48.452;11.494;2023-02-26T06:14:24;18.50;34.80
33564;DHT22;19894;48.452;11.494;2023-02-26T06:16:50;18.50;34.80
33564;DHT22;19894;48.452;11.494;2023-02-26T06:19:15;18.50;34.80
33564;DHT22;19894;48.452;11.494;2023-02-26T06:21:41;18.50;34.80
33564;DHT22;19894;48.452;11.494;2023-02-26T06:24:07;18.50;34.80
33564;DHT22;19894;48.452;11.494;2023-02-26T06:26:32;18.50;34.80
33564;DHT22;19894;48.452;11.494;2023-02-26T06:28:58;18.50;34.80
33564;DHT22;19894;48.452;11.494;2023-02-26T06:31:23;18.50;34.80
33564;DHT22;19894;48.452;11.494;2023-02-26T06:33:49;18.50;34.80
33564;DHT22;19894;48.452;11.494;2023-02-26T06:36:14;18.50;34.80
33564;DHT22;19894;48.452;11.494;2023-02-26T06:38:41;18.50;34.80
33564;DHT22;19894;48.452;11.494;2023-02-26T06:41:10;18.50;34.80
33564;DHT22;19894;48.452;11.494;2023-02-26T06:43:35;18.50;34.70
33564;DHT22;19894;48.452;11.494;2023-02-26T06:46:01;18.50;35.30
33564;DHT22;19894;48.452;11.494;2023-02-26T06:48:27;18.50;34.80
33564;DHT22;19894;48.452;11.494;2023-02-26T06:50:53;18.50;34.80
33564;DHT22;19894;48.452;11.494;2023-02-26T06:53:18;18.50;34.80
33564;DHT22;19894;48.452;11.494;2023-02-26T06:55:45;18.50;34.70
33564;DHT22;19894;48.452;11.494;2023-02-26T06:58:11;18.50;34.80
33564;DHT22;19894;48.452;11.494;2023-02-26T07:00:38;18.50;34.70
33564;DHT22;19894;48.452;11.494;2023-02-26T07:03:04;18.50;34.70
33564;DHT22;19894;48.452;11.494;2023-02-26T07:05:30;18.50;34.60
33564;DHT22;19894;48.452;11.494;2023-02-26T07:07:56;18.50;34.60
33564;DHT22;19894;48.452;11.494;2023-02-26T07:10:21;18.50;35.20
33564;DHT22;19894;48.452;11.494;2023-02-26T07:12:49;18.50;34.60
33564;DHT22;19894;48.452;11.494;2023-02-26T07:15:15;18.50;34.60
33564;DHT22;19894;48.452;11.494;2023-02-26T07:17:41;18.50;34.60
33564;DHT22;19894;48.452;11.494;2023-02-26T07:20:07;18.50;34.50
33564;DHT22;19894;48.452;11.494;2023-02-26T07:22:38;18.50;34.50
33564;DHT22;19894;48.452;11.494;2023-02-26T07:25:04;18.50;34.50
33564;DHT22;19894;48.452;11.494;2023-02-26T07:27:30;18.50;34.50
33564;DHT22;19894;48.452;11.494;2023-02-26T07:29:58;18.50;34.50
33564;DHT22;19894;48.452;11.494;2023-02-26T07:32:23;18.50;34.60
33564;DHT22;19894;48.452;11.494;2023-02-26T07:34:49;18.50;34.50
33564;DHT22;19894;48.452;11.494;2023-02-26T07:37:15;18.50;34.60
33564;DHT22;19894;48.452;11.494;2023-02-26T07:39:40;18.50;34.50
33564;DHT22;19894;48.452;11.494;2023-02-26T07:42:06;18.50;34.60
33564;DHT22;19894;48.452;11.494;2023-02-26T07:44:31;18.50;34.50
33564;DHT22;19894;48.452;11.494;2023-02-26T07:46:57;18.50;34.60
33564;DHT22;19894;48.452;11.494;2023-02-26T07:49:22;18.50;34.60
33564;DHT22;19894;48.452;11.494;2023-02-26T07:51:48;18.50;34.60
33564;DHT22;19894;48.452;11.494;2023-02-26T07:54:14;18.50;34.60
33564;DHT22;19894;48.452;11.494;2023-02-26T07:56:40;18.50;34.60
33564;DHT22;19894;48.452;11.494;2023-02-26T07:59:07;18.50;34.60
33564;DHT22;19894;48.452;11.494;2023-02-26T08:01:33;18.50;34.50
33564;DHT22;19894;48.452;11.494;2023-02-26T08:03:58;18.50;34.50
33564;DHT22;19894;48.452;11.494;2023-02-26T08:06:24;18.50;34.50
33564;DHT22;19894;48.452;11.494;2023-02-26T08:08:49;18.50;34.50
33564;DHT22;19894;48.452;11.494;2023-02-26T08:11:15;18.50;34.50
33564;DHT22;19894;48.452;11.494;2023-02-26T08:13:40;18.50;34.40
33564;DHT22;19894;48.452;11.494;2023-02-26T08:16:06;18.50;34.90
33564;DHT22;19894;48.452;11.494;2023-02-26T08:18:31;18.50;34.40
33564;DHT22;19894;48.452;11.494;2023-02-26T08:20:57;18.50;34.40
33564;DHT22;19894;48.452;11.494;2023-02-26T08:23:22;18.50;34.40
33564;DHT22;19894;48.452;11.494;2023-02-26T08:25:48;18.50;34.40
33564;DHT22;19894;48.452;11.494;2023-02-26T08:28:14;18.50;34.40
33564;DHT22;19894;48.452;11.494;2023-02-26T08:30:40;18.50;34.40
33564;DHT22;19894;48.452;11.494;2023-02-26T08:33:06;18.50;34.50
33564;DHT22;19894;48.452;11.494;2023-02-26T08:35:31;18.50;34.60
33564;DHT22;19894;48.452;11.494;2023-02-26T08:37:57;18.50;34.50
33564;DHT22;19894;48.452;11.494;2023-02-26T08:40:24;18.50;34.50
33564;DHT22;19894;48.452;11.494;2023-02-26T08:42:49;18.50;34.50
33564;DHT22;19894;48.452;11.494;2023-02-26T08:45:15;18.50;34.50
33564;DHT22;19894;48.452;11.494;2023-02-26T08:47:40;18.50;34.50
33564;DHT22;19894;48.452;11.494;2023-02-26T08:50:10;18.50;34.50
33564;DHT22;19894;48.452;11.494;2023-02-26T08:52:35;18.50;34.50
33564;DHT22;19894;48.452;11.494;2023-02-26T08:55:03;18.50;34.50
33564;DHT22;19894;48.452;11.494;2023-02-26T08:57:28;18.50;34.50
33564;DHT22;19894;48.452;11.494;2023-02-26T08:59:54;18.50;34.40
33564;DHT22;19894;48.452;11.494;2023-02-26T09:02:19;18.50;34.40
33564;DHT22;19894;48.452;11.494;2023-02-26T09:04:45;18.50;34.40
33564;DHT22;19894;48.452;11.494;2023-02-26T09:07:11;18.50;34.40
33564;DHT22;19894;48.452;11.494;2023-02-26T09:09:37;18.50;34.40
33564;DHT22;19894;48.452;11.494;2023-02-26T09:12:02;18.50;34.40
33564;DHT22;19894;48.452;11.494;2023-02-26T09:14:28;18.50;34.30
33564;DHT22;19894;48.452;11.494;2023-02-26T09:16:54;18.50;34.40
33564;DHT22;19894;48.452;11.494;2023-02-26T09:19:19;18.50;34.30
33564;DHT22;19894;48.452;11.494;2023-02-26T09:21:45;18.50;34.20
33564;DHT22;19894;48.452;11.494;2023-02-26T09:24:11;18.50;34.30
33564;DHT22;19894;48.452;11.494;2023-02-26T09:26:36;18.50;34.20
33564;DHT22;19894;48.452;11.494;2023-02-26T09:29:02;18.50;34.20
33564;DHT22;19894;48.452;11.494;2023-02-26T09:31:28;18.50;34.30
33564;DHT22;19894;48.452;11.494;2023-02-26T09:33:54;18.50;34.30
33564;DHT22;19894;48.452;11.494;2023-02-26T09:36:19;18.50;34.40
33564;DHT22;19894;48.452;11.494;2023-02-26T09:38:45;18.50;34.40
33564;DHT22;19894;48.452;11.494;2023-02-26T09:41:21;18.50;34.40
33564;DHT22;19894;48.452;11.494;2023-02-26T09:50:00;18.50;34.40
33564;DHT22;19894;48.452;11.494;2023-02-26T09:52:34;18.50;34.40
33564;DHT22;19894;48.452;11.494;2023-02-26T09:55:15;18.50;34.40
33564;DHT22;19894;48.452;11.494;2023-02-26T09:57:44;18.50;34.40
33564;DHT22;19894;48.452;11.494;2023-02-26T10:06:27;18.50;34.30
33564;DHT22;19894;48.452;11.494;2023-02-26T10:11:59;18.50;34.30
33564;DHT22;19894;48.452;11.494;2023-02-26T10:14:31;18.50;34.30
33564;DHT22;19894;48.452;11.494;2023-02-26T10:17:04;18.50;34.20
33564;DHT22;19894;48.452;11.494;2023-02-26T10:19:34;18.50;34.20
33564;DHT22;19894;48.452;11.494;2023-02-26T10:24:57;18.50;34.20
33564;DHT22;19894;48.452;11.494;2023-02-26T10:30:04;18.40;34.20
33564;DHT22;19894;48.452;11.494;2023-02-26T10:32:45;18.40;34.20
33564;DHT22;19894;48.452;11.494;2023-02-26T10:35:16;18.40;34.20
33564;DHT22;19894;48.452;11.494;2023-02-26T10:37:58;18.40;34.20
33564;DHT22;19894;48.452;11.494;2023-02-26T10:43:18;18.50;34.30
33564;DHT22;19894;48.452;11.494;2023-02-26T10:51:18;18.50;34.30
33564;DHT22;19894;48.452;11.494;2023-02-26T10:53:55;18.50;34.40
33564;DHT22;19894;48.452;11.494;2023-02-26T10:56:31;18.50;34.30
33564;DHT22;19894;48.452;11.494;2023-02-26T10:58:57;18.50;34.30
33564;DHT22;19894;48.452;11.494;2023-02-26T11:01:24;18.50;34.30
33564;DHT22;19894;48.452;11.494;2023-02-26T11:06:27;18.50;34.20
33564;DHT22;19894;48.452;11.494;2023-02-26T11:08:55;18.50;34.30
33564;DHT22;19894;48.452;11.494;2023-02-26T11:12:13;18.50;34.20
33564;DHT22;19894;48.452;11.494;2023-02-26T11:14:32;18.50;34.20
33564;DHT22;19894;48.452;11.494;2023-02-26T11:17:03;18.50;34.20
33564;DHT22;19894;48.452;11.494;2023-02-26T11:19:41;18.50;34.20
33564;DHT22;19894;48.452;11.494;2023-02-26T11:22:13;18.50;34.20
33564;DHT22;19894;48.452;11.494;2023-02-26T11:24:43;18.50;34.10
33564;DHT22;19894;48.452;11.494;2023-02-26T11:27:13;18.50;34.10
33564;DHT22;19894;48.452;11.494;2023-02-26T11:29:42;18.50;34.10
33564;DHT22;19894;48.452;11.494;2023-02-26T11:32:20;18.50;34.10
33564;DHT22;19894;48.452;11.494;2023-02-26T11:34:49;18.50;34.10
33564;DHT22;19894;48.452;11.494;2023-02-26T11:37:30;18.50;34.20
33564;DHT22;19894;48.452;11.494;2023-02-26T11:40:04;18.50;34.20
33564;DHT22;19894;48.452;11.494;2023-02-26T11:42:35;18.50;34.20
33564;DHT22;19894;48.452;11.494;2023-02-26T11:45:04;18.50;34.20
33564;DHT22;19894;48.452;11.494;2023-02-26T11:47:31;18.50;34.20
33564;DHT22;19894;48.452;11.494;2023-02-26T11:50:03;18.50;34.10
33564;DHT22;19894;48.452;11.494;2023-02-26T11:52:34;18.50;34.20
33564;DHT22;19894;48.452;11.494;2023-02-26T11:57:42;18.50;34.20
33564;DHT22;19894;48.452;11.494;2023-02-26T12:00:38;18.50;34.20
33564;DHT22;19894;48.452;11.494;2023-02-26T12:03:22;18.50;34.10
33564;DHT22;19894;48.452;11.494;2023-02-26T12:05:49;18.50;34.10
33564;DHT22;19894;48.452;11.494;2023-02-26T12:08:27;18.50;34.10
33564;DHT22;19894;48.452;11.494;2023-02-26T12:17:20;18.50;34.10
33564;DHT22;19894;48.452;11.494;2023-02-26T12:22:50;18.50;34.50
33564;DHT22;19894;48.452;11.494;2023-02-26T12:31:11;18.50;33.90
33564;DHT22;19894;48.452;11.494;2023-02-26T12:47:24;18.50;34.00
33564;DHT22;19894;48.452;11.494;2023-02-26T12:55:50;18.50;34.00
33564;DHT22;19894;48.452;11.494;2023-02-26T13:04:35;18.50;33.90
33564;DHT22;19894;48.452;11.494;2023-02-26T13:07:15;18.50;33.90
33564;DHT22;19894;48.452;11.494;2023-02-26T13:09:51;18.50;34.00
33564;DHT22;19894;48.452;11.494;2023-02-26T13:12:41;18.50;34.00
33564;DHT22;19894;48.452;11.494;2023-02-26T13:18:15;18.50;33.90
33564;DHT22;19894;48.452;11.494;2023-02-26T13:20:56;18.50;33.90
33564;DHT22;19894;48.452;11.494;2023-02-26T13:23:32;18.40;33.80
33564;DHT22;19894;48.452;11.494;2023-02-26T13:26:02;18.50;33.90
33564;DHT22;19894;48.452;11.494;2023-02-26T13:28:39;18.50;33.90
33564;DHT22;19894;48.452;11.494;2023-02-26T13:31:16;18.50;33.80
33564;DHT22;19894;48.452;11.494;2023-02-26T13:33:44;18.50;33.80
33564;DHT22;19894;48.452;11.494;2023-02-26T13:36:10;18.50;33.80
33564;DHT22;19894;48.452;11.494;2023-02-26T13:44:41;18.50;33.90
33564;DHT22;19894;48.452;11.494;2023-02-26T13:58:39;18.50;33.80
33564;DHT22;19894;48.452;11.494;2023-02-26T14:01:14;18.50;33.90
33564;DHT22;19894;48.452;11.494;2023-02-26T14:03:49;18.50;33.80
33564;DHT22;19894;48.452;11.494;2023-02-26T14:06:41;18.50;33.80
33564;DHT22;19894;48.452;11.494;2023-02-26T14:19:43;18.50;33.70
33564;DHT22;19894;48.452;11.494;2023-02-26T14:27:41;18.50;33.60
33564;DHT22;19894;48.452;11.494;2023-02-26T14:35:42;18.50;33.50
33564;DHT22;19894;48.452;11.494;2023-02-26T14:38:19;18.40;33.50
33564;DHT22;19894;48.452;11.494;2023-02-26T14:40:48;18.50;33.60
33564;DHT22;19894;48.452;11.494;2023-02-26T14:43:21;18.50;33.60
33564;DHT22;19894;48.452;11.494;2023-02-26T14:45:49;18.50;33.60
33564;DHT22;19894;48.452;11.494;2023-02-26T14:48:21;18.50;33.70
33564;DHT22;19894;48.452;11.494;2023-02-26T15:02:41;18.50;34.00
33564;DHT22;19894;48.452;11.494;2023-02-26T15:16:03;18.50;33.30
33564;DHT22;19894;48.452;11.494;2023-02-26T15:18:58;18.50;33.40
33564;DHT22;19894;48.452;11.494;2023-02-26T15:24:17;18.50;33.40
33564;DHT22;19894;48.452;11.494;2023-02-26T15:26:50;18.50;33.50
33564;DHT22;19894;48.452;11.494;2023-02-26T15:29:16;18.50;33.40
33564;DHT22;19894;48.452;11.494;2023-02-26T15:34:13;18.50;33.40
33564;DHT22;19894;48.452;11.494;2023-02-26T15:36:43;18.50;33.40
33564;DHT22;19894;48.452;11.494;2023-02-26T15:39:09;18.50;33.40
33564;DHT22;19894;48.452;11.494;2023-02-26T15:41:36;18.50;33.20
33564;DHT22;19894;48.452;11.494;2023-02-26T15:44:09;18.60;33.40
33564;DHT22;19894;48.452;11.494;2023-02-26T15:46:41;18.50;33.30
33564;DHT22;19894;48.452;11.494;2023-02-26T15:49:12;18.50;33.30
33564;DHT22;19894;48.452;11.494;2023-02-26T15:51:40;18.50;33.30
33564;DHT22;19894;48.452;11.494;2023-02-26T15:54:12;18.50;33.40
33564;DHT22;19894;48.452;11.494;2023-02-26T15:56:40;18.50;33.40
33564;DHT22;19894;48.452;11.494;2023-02-26T15:59:16;18.50;33.40
33564;DHT22;19894;48.452;11.494;2023-02-26T16:01:43;18.50;33.40
33564;DHT22;19894;48.452;11.494;2023-02-26T16:04:15;18.50;33.40
33564;DHT22;19894;48.452;11.494;2023-02-26T16:06:44;18.50;33.90
33564;DHT22;19894;48.452;11.494;2023-02-26T16:09:24;18.50;33.40
33564;DHT22;19894;48.452;11.494;2023-02-26T16:11:52;18.50;33.40
33564;DHT22;19894;48.452;11.494;2023-02-26T16:14:29;18.50;33.30
33564;DHT22;19894;48.452;11.494;2023-02-26T16:16:56;18.50;33.40
33564;DHT22;19894;48.452;11.494;2023-02-26T16:19:37;18.50;33.40
33564;DHT22;19894;48.452;11.494;2023-02-26T16:24:45;18.50;33.30
33564;DHT22;19894;48.452;11.494;2023-02-26T16:27:15;18.50;33.30
33564;DHT22;19894;48.452;11.494;2023-02-26T16:29:48;18.50;33.20
33564;DHT22;19894;48.452;11.494;2023-02-26T16:32:15;18.50;33.20
33564;DHT22;19894;48.452;11.494;2023-02-26T16:35:15;18.50;33.20
33564;DHT22;19894;48.452;11.494;2023-02-26T16:37:45;18.50;33.20
33564;DHT22;19894;48.452;11.494;2023-02-26T16:40:29;18.50;33.80
33564;DHT22;19894;48.452;11.494;2023-02-26T16:45:48;18.50;33.20
33564;DHT22;19894;48.452;11.494;2023-02-26T16:48:23;18.50;33.20
33564;DHT22;19894;48.452;11.494;2023-02-26T16:51:01;18.50;33.00
33564;DHT22;19894;48.452;11.494;2023-02-26T16:53:40;18.50;33.20
33564;DHT22;19894;48.452;11.494;2023-02-26T16:56:16;18.50;33.20
33564;DHT22;19894;48.452;11.494;2023-02-26T16:58:48;18.50;33.20
33564;DHT22;19894;48.452;11.494;2023-02-26T17:01:17;18.50;33.20
33564;DHT22;19894;48.452;11.494;2023-02-26T17:03:52;18.50;33.30
33564;DHT22;19894;48.452;11.494;2023-02-26T17:06:23;18.50;33.20
33564;DHT22;19894;48.452;11.494;2023-02-26T17:08:55;18.50;33.80
33564;DHT22;19894;48.452;11.494;2023-02-26T17:11:28;18.50;33.30
33564;DHT22;19894;48.452;11.494;2023-02-26T17:14:20;18.50;33.30
33564;DHT22;19894;48.452;11.494;2023-02-26T17:16:49;18.50;33.20
33564;DHT22;19894;48.452;11.494;2023-02-26T17:19:15;18.50;33.30
33564;DHT22;19894;48.452;11.494;2023-02-26T17:21:54;18.50;33.20
33564;DHT22;19894;48.452;11.494;2023-02-26T17:24:36;18.50;33.20
33564;DHT22;19894;48.452;11.494;2023-02-26T17:27:06;18.50;33.10
33564;DHT22;19894;48.452;11.494;2023-02-26T17:29:37;18.50;33.20
33564;DHT22;19894;48.452;11.494;2023-02-26T17:32:17;18.50;33.10
33564;DHT22;19894;48.452;11.494;2023-02-26T17:34:43;18.50;33.10
33564;DHT22;19894;48.452;11.494;2023-02-26T17:37:11;18.50;33.20
33564;DHT22;19894;48.452;11.494;2023-02-26T17:39:37;18.50;33.20
33564;DHT22;19894;48.452;11.494;2023-02-26T17:42:02;18.50;33.10
33564;DHT22;19894;48.452;11.494;2023-02-26T17:44:28;18.50;33.10
33564;DHT22;19894;48.452;11.494;2023-02-26T17:46:54;18.50;33.20
33564;DHT22;19894;48.452;11.494;2023-02-26T17:49:19;18.50;33.10
33564;DHT22;19894;48.452;11.494;2023-02-26T17:51:45;18.50;33.10
33564;DHT22;19894;48.452;11.494;2023-02-26T17:54:10;18.50;33.10
33564;DHT22;19894;48.452;11.494;2023-02-26T17:56:36;18.50;33.10
33564;DHT22;19894;48.452;11.494;2023-02-26T17:59:02;18.50;33.20
33564;DHT22;19894;48.452;11.494;2023-02-26T18:01:29;18.50;33.20
33564;DHT22;19894;48.452;11.494;2023-02-26T18:03:55;18.50;33.20
33564;DHT22;19894;48.452;11.494;2023-02-26T18:06:23;18.50;33.20
33564;DHT22;19894;48.452;11.494;2023-02-26T18:08:48;18.50;33.20
33564;DHT22;19894;48.452;11.494;2023-02-26T18:11:16;18.50;33.20
33564;DHT22;19894;48.452;11.494;2023-02-26T18:13:42;18.50;33.20
33564;DHT22;19894;48.452;11.494;2023-02-26T18:16:19;18.50;33.20
33564;DHT22;19894;48.452;11.494;2023-02-26T18:18:45;18.50;33.20
33564;DHT22;19894;48.452;11.494;2023-02-26T18:21:10;18.50;33.20
33564;DHT22;19894;48.452;11.494;2023-02-26T18:23:36;18.50;33.20
33564;DHT22;19894;48.452;11.494;2023-02-26T18:26:02;18.50;33.20
33564;DHT22;19894;48.452;11.494;2023-02-26T18:28:28;18.50;33.10
33564;DHT22;19894;48.452;11.494;2023-02-26T18:30:55;18.50;33.10
33564;DHT22;19894;48.452;11.494;2023-02-26T18:33:22;18.50;33.10
33564;DHT22;19894;48.452;11.494;2023-02-26T18:35:50;18.50;33.10
33564;DHT22;19894;48.452;11.494;2023-02-26T18:38:22;18.50;33.10